Lotosino, Russia
Current Conditions -  °F | °C
As of 2:00 PM on Saturday 25 Oct 2014 (Local Time) from UUEE Reporting Station
Clear Clear  
Wind Chill: 28°   Ceiling: Unl
Heat Index: 28°   Visibility: 6mi
Dew Point: 12°   Wind: 2mph
Humidity: 51%   Direction: NA
Pressure: 30.62"   Gusts: NA
Location:  56.23°N, 35.63°E
Report Text: UUEE 251100Z VRB01MPS CAVOK M02/M11 Q1037 07000062 57150051NOSIG
Loading
Personal Weather Stations






























Interactive Weather Map
Tropical Storm Tracking
New forecast layout! Learn more

10-Day Weather Forecast

Advertisements
Track Severe Weather on mobile